createdAt,value
2019-06-10T00:01:40.882Z,5.43
2019-06-10T00:04:12.649Z,6.23
2019-06-10T00:06:43.572Z,6.20
2019-06-10T00:09:14.404Z,6.27
2019-06-10T00:11:45.652Z,6.50
2019-06-10T00:14:16.408Z,6.57
2019-06-10T00:16:47.223Z,6.83
2019-06-10T00:19:18.060Z,6.57
2019-06-10T00:21:50.899Z,6.50
2019-06-10T00:24:21.782Z,7.20
2019-06-10T00:26:52.578Z,6.70
2019-06-10T00:29:23.341Z,6.27
2019-06-10T00:31:56.406Z,7.00
2019-06-10T00:34:27.166Z,6.73
2019-06-10T00:36:59.613Z,6.90
2019-06-10T00:39:31.295Z,7.23
2019-06-10T00:42:05.941Z,7.50
2019-06-10T00:44:34.750Z,6.83
2019-06-10T00:47:07.960Z,6.97
2019-06-10T00:49:37.879Z,7.33
2019-06-10T00:52:11.171Z,7.00
2019-06-10T00:54:42.262Z,6.97
2019-06-10T00:57:14.223Z,7.03
2019-06-10T00:59:44.964Z,7.10
2019-06-10T01:02:15.603Z,6.97
2019-06-10T01:04:46.835Z,6.13
2019-06-10T01:07:17.763Z,6.30
2019-06-10T01:09:48.427Z,6.63
2019-06-10T01:12:21.148Z,6.20
2019-06-10T01:14:52.224Z,6.30
2019-06-10T01:17:22.838Z,6.63
2019-06-10T01:19:53.650Z,6.77
2019-06-10T01:22:24.429Z,6.37
2019-06-10T01:24:55.365Z,7.17
2019-06-10T01:27:26.206Z,7.07
2019-06-10T01:29:56.925Z,7.20
2019-06-10T01:32:31.223Z,6.70
2019-06-10T01:35:02.256Z,7.00
2019-06-10T01:37:33.233Z,6.83
2019-06-10T01:40:04.286Z,6.60
2019-06-10T01:42:35.299Z,6.33
2019-06-10T01:45:06.682Z,6.37
2019-06-10T01:47:37.402Z,7.53
2019-06-10T01:50:11.891Z,6.37
2019-06-10T01:52:41.548Z,6.27
2019-06-10T01:55:14.963Z,7.20
2019-06-10T01:57:46.066Z,6.93
2019-06-10T02:00:25.670Z,7.10
2019-06-10T02:02:52.490Z,6.97
2019-06-10T02:05:25.024Z,6.50
2019-06-10T02:07:55.728Z,7.00
2019-06-10T02:10:26.530Z,7.10
2019-06-10T02:12:57.326Z,7.17
2019-06-10T02:15:28.118Z,7.03
2019-06-10T02:18:01.043Z,7.27
2019-06-10T02:20:31.797Z,7.13
2019-06-10T02:23:02.831Z,8.03
2019-06-10T02:25:33.664Z,7.63
2019-06-10T02:28:04.383Z,7.97
2019-06-10T02:30:44.298Z,8.03
2019-06-10T02:33:07.710Z,7.63
2019-06-10T02:35:44.609Z,7.17
2019-06-10T02:38:16.850Z,6.80
2019-06-10T02:40:43.654Z,6.77
2019-06-10T02:43:20.814Z,6.70
2019-06-10T02:45:49.412Z,6.60
2019-06-10T02:48:22.474Z,7.23
2019-06-10T02:51:05.656Z,6.47
2019-06-10T02:53:37.453Z,6.07
2019-06-10T02:56:09.840Z,5.70
2019-06-10T02:58:44.853Z,5.57
2019-06-10T03:01:16.345Z,5.37
2019-06-10T03:03:49.726Z,5.67
2019-06-10T03:06:29.804Z,5.83
2019-06-10T03:08:54.852Z,5.20
2019-06-10T03:11:29.622Z,5.03
2019-06-10T03:13:58.704Z,5.50
2019-06-10T03:16:37.895Z,4.97
2019-06-10T03:19:08.652Z,5.33
2019-06-10T03:21:39.673Z,4.47
2019-06-10T03:24:10.421Z,5.00
2019-06-10T03:26:42.791Z,5.23
2019-06-10T03:29:13.781Z,4.83
2019-06-10T03:31:47.979Z,5.07
2019-06-10T03:34:18.225Z,4.53
2019-06-10T03:36:49.932Z,4.83
2019-06-10T03:39:23.429Z,4.80
2019-06-10T03:41:53.745Z,4.53
2019-06-10T03:44:25.475Z,4.60
2019-06-10T03:46:56.898Z,4.50
2019-06-10T03:49:28.875Z,4.43
2019-06-10T03:52:02.295Z,4.50
2019-06-10T03:54:33.903Z,4.13
2019-06-10T03:57:05.002Z,4.10
2019-06-10T03:59:35.803Z,4.43
2019-06-10T04:02:06.664Z,4.43
2019-06-10T04:04:37.598Z,4.20
2019-06-10T04:07:08.286Z,4.43
2019-06-10T04:09:39.103Z,4.50
2019-06-10T04:12:09.920Z,4.03
2019-06-10T04:14:41.979Z,4.20
2019-06-10T04:17:13.097Z,4.17
2019-06-10T04:19:44.381Z,4.40
2019-06-10T04:22:28.332Z,4.37
2019-06-10T04:24:59.273Z,3.87
2019-06-10T04:27:29.937Z,4.00
2019-06-10T04:30:03.087Z,4.08
2019-06-10T04:32:33.539Z,3.33
2019-06-10T04:35:04.973Z,3.70
2019-06-10T04:37:38.753Z,3.40
2019-06-10T04:40:09.905Z,3.30
2019-06-10T04:42:43.358Z,3.08
2019-06-10T04:45:13.343Z,3.12
2019-06-10T04:47:44.424Z,3.37
2019-06-10T04:50:24.958Z,3.35
2019-06-10T04:52:50.160Z,3.20
2019-06-10T04:55:23.581Z,3.12
2019-06-10T04:57:54.058Z,3.35
2019-06-10T05:00:27.165Z,3.90
2019-06-10T05:02:57.769Z,3.30
2019-06-10T05:05:29.951Z,2.80
2019-06-10T05:08:02.675Z,3.08
2019-06-10T05:10:35.464Z,2.80
2019-06-10T05:13:06.443Z,3.05
2019-06-10T05:15:37.284Z,2.72
2019-06-10T05:18:08.371Z,2.87
2019-06-10T05:20:53.334Z,3.05
2019-06-10T05:23:13.018Z,2.60
2019-06-10T05:25:43.996Z,3.00
2019-06-10T05:28:14.839Z,2.37
2019-06-10T05:30:45.881Z,2.58
2019-06-10T05:33:17.036Z,2.75
2019-06-10T05:35:47.861Z,2.37
2019-06-10T05:38:23.434Z,2.62
2019-06-10T05:40:52.680Z,2.65
2019-06-10T05:43:24.951Z,2.77
2019-06-10T05:45:56.341Z,3.20
2019-06-10T05:48:28.323Z,3.15
2019-06-10T05:51:03.066Z,2.52
2019-06-10T05:53:34.982Z,2.67
2019-06-10T05:56:05.019Z,3.27
2019-06-10T05:58:36.097Z,3.08
2019-06-10T06:01:06.984Z,2.85
2019-06-10T06:03:37.892Z,2.77
2019-06-10T06:06:08.850Z,2.75
2019-06-10T06:08:39.722Z,2.70
2019-06-10T06:11:12.847Z,2.90
2019-06-10T06:13:43.922Z,2.80
2019-06-10T06:16:14.770Z,2.80
2019-06-10T06:18:45.774Z,2.60
2019-06-10T06:21:25.317Z,2.65
2019-06-10T06:23:49.547Z,3.08
2019-06-10T06:26:23.264Z,2.42
2019-06-10T06:28:53.699Z,2.70
2019-06-10T06:31:26.077Z,2.67
2019-06-10T06:33:57.214Z,2.60
2019-06-10T06:36:29.031Z,2.30
2019-06-10T06:39:02.182Z,2.47
2019-06-10T06:41:34.528Z,2.40
2019-06-10T06:44:06.722Z,2.70
2019-06-10T06:46:39.550Z,2.67
2019-06-10T06:49:12.574Z,2.52
2019-06-10T06:51:54.802Z,3.10
2019-06-10T06:54:15.427Z,2.58
2019-06-10T06:56:46.238Z,2.47
2019-06-10T06:59:17.079Z,2.27
2019-06-10T07:01:52.316Z,2.52
2019-06-10T07:04:23.563Z,2.50
2019-06-10T07:06:55.728Z,2.22
2019-06-10T07:09:28.614Z,2.62
2019-06-10T07:12:02.505Z,2.40
2019-06-10T07:14:37.131Z,2.00
2019-06-10T07:17:06.613Z,2.30
2019-06-10T07:19:39.529Z,2.37
2019-06-10T07:22:15.291Z,2.30
2019-06-10T07:24:47.281Z,2.30
2019-06-10T07:27:15.570Z,2.20
2019-06-10T07:29:47.455Z,2.22
2019-06-10T07:32:18.493Z,2.50
2019-06-10T07:34:49.538Z,2.77
2019-06-10T07:37:22.991Z,2.40
2019-06-10T07:39:53.254Z,2.67
2019-06-10T07:42:24.568Z,2.33
2019-06-10T07:44:55.792Z,2.27
2019-06-10T07:47:26.759Z,2.33
2019-06-10T07:49:58.694Z,2.02
2019-06-10T07:52:29.725Z,2.30
2019-06-10T07:55:02.483Z,2.20
2019-06-10T07:57:34.748Z,2.33
2019-06-10T08:00:06.871Z,2.62
2019-06-10T08:02:39.726Z,2.12
2019-06-10T08:05:12.763Z,2.55
2019-06-10T08:07:46.882Z,2.17
2019-06-10T08:10:16.760Z,2.30
2019-06-10T08:12:48.408Z,1.95
2019-06-10T08:15:19.426Z,3.37
2019-06-10T08:17:52.904Z,2.70
2019-06-10T08:20:43.882Z,2.80
2019-06-10T08:23:16.433Z,2.42
2019-06-10T08:25:53.689Z,2.30
2019-06-10T08:28:23.036Z,2.50
2019-06-10T08:30:53.318Z,2.50
2019-06-10T08:33:24.411Z,2.52
2019-06-10T08:36:00.118Z,2.77
2019-06-10T08:38:27.989Z,2.20
2019-06-10T08:40:59.047Z,2.27
2019-06-10T08:43:30.046Z,2.42
2019-06-10T08:46:02.614Z,2.45
2019-06-10T08:48:33.843Z,2.05
2019-06-10T08:51:05.042Z,3.37
2019-06-10T08:53:37.383Z,2.08
2019-06-10T08:56:08.792Z,2.00
2019-06-10T08:58:40.940Z,2.77
2019-06-10T09:01:13.379Z,2.42
2019-06-10T09:03:48.595Z,2.60
2019-06-10T09:06:17.654Z,3.02
2019-06-10T09:08:51.081Z,2.50
2019-06-10T09:11:23.697Z,2.60
2019-06-10T09:13:53.972Z,2.62
2019-06-10T09:16:25.133Z,2.60
2019-06-10T09:18:56.127Z,2.83
2019-06-10T09:21:27.194Z,2.65
2019-06-10T09:24:00.469Z,2.47
2019-06-10T09:26:33.734Z,2.60
2019-06-10T09:29:04.082Z,2.62
2019-06-10T09:31:35.234Z,2.60
2019-06-10T09:34:06.179Z,2.90
2019-06-10T09:36:37.430Z,3.10
2019-06-10T09:39:09.529Z,2.75
2019-06-10T09:41:47.545Z,2.52
2019-06-10T09:44:13.205Z,2.72
2019-06-10T09:46:49.411Z,2.95
2019-06-10T09:49:22.293Z,2.67
2019-06-10T09:51:57.347Z,2.60
2019-06-10T09:54:26.944Z,2.70
2019-06-10T09:56:58.007Z,2.92
2019-06-10T09:59:29.002Z,2.90
2019-06-10T10:02:02.957Z,3.10
2019-06-10T10:04:32.848Z,2.85
2019-06-10T10:07:04.910Z,2.83
2019-06-10T10:09:37.067Z,3.02
2019-06-10T10:12:08.245Z,3.08
2019-06-10T10:14:39.180Z,3.50
2019-06-10T10:17:12.696Z,3.30
2019-06-10T10:19:45.477Z,3.55
2019-06-10T10:22:15.665Z,3.25
2019-06-10T10:24:47.584Z,3.33
2019-06-10T10:27:18.998Z,3.55
2019-06-10T10:29:52.350Z,3.58
2019-06-10T10:32:23.327Z,3.85
2019-06-10T10:34:56.455Z,3.47
2019-06-10T10:37:28.299Z,3.70
2019-06-10T10:40:02.991Z,3.72
2019-06-10T10:42:42.725Z,3.75
2019-06-10T10:45:06.508Z,3.92
2019-06-10T10:47:37.602Z,4.22
2019-06-10T10:50:08.936Z,3.98
2019-06-10T10:52:42.847Z,3.65
2019-06-10T10:55:14.250Z,4.53
2019-06-10T10:57:45.488Z,4.50
2019-06-10T11:00:19.470Z,4.67
2019-06-10T11:02:51.436Z,4.58
2019-06-10T11:05:37.069Z,4.85
2019-06-10T11:08:08.944Z,4.60
2019-06-10T11:10:43.880Z,4.42
2019-06-10T11:13:13.186Z,4.40
2019-06-10T11:15:45.688Z,4.40
2019-06-10T11:18:17.021Z,4.90
2019-06-10T11:20:49.831Z,4.75
2019-06-10T11:23:22.827Z,4.60
2019-06-10T11:25:56.919Z,5.15
2019-06-10T11:28:26.498Z,4.87
2019-06-10T11:31:08.838Z,5.75
2019-06-10T11:33:40.331Z,5.10
2019-06-10T11:36:13.469Z,5.08
2019-06-10T11:38:46.287Z,5.33
2019-06-10T11:41:17.384Z,5.95
2019-06-10T11:43:48.472Z,5.20
2019-06-10T11:46:19.707Z,5.58
2019-06-10T11:48:53.932Z,4.78
2019-06-10T11:51:24.351Z,5.37
2019-06-10T11:53:57.185Z,5.78
2019-06-10T11:56:28.334Z,5.70
2019-06-10T11:59:04.058Z,5.33
2019-06-10T12:01:32.304Z,5.65
2019-06-10T12:04:04.108Z,6.92
2019-06-10T12:06:35.513Z,6.25
2019-06-10T12:09:09.142Z,5.78
2019-06-10T12:11:43.415Z,5.70
2019-06-10T12:14:13.067Z,5.78
2019-06-10T12:17:17.774Z,5.67
2019-06-10T12:19:16.708Z,6.22
2019-06-10T12:21:47.822Z,5.87
2019-06-10T12:24:19.206Z,5.53
2019-06-10T12:26:53.462Z,6.20
2019-06-10T12:29:23.145Z,5.25
2019-06-10T12:31:57.989Z,6.30
2019-06-10T12:34:26.966Z,5.60
2019-06-10T12:37:03.547Z,5.62
2019-06-10T12:39:30.981Z,6.22
2019-06-10T12:42:06.097Z,5.90
2019-06-10T12:44:35.761Z,6.12
2019-06-10T12:47:08.318Z,6.10
2019-06-10T12:49:42.574Z,5.85
2019-06-10T12:52:13.049Z,5.60
2019-06-10T12:54:44.123Z,5.70
2019-06-10T12:57:16.450Z,5.92
2019-06-10T12:59:47.722Z,5.65
2019-06-10T13:02:23.287Z,6.00
2019-06-10T13:04:52.189Z,5.87
2019-06-10T13:07:25.160Z,5.53
2019-06-10T13:09:57.813Z,6.35
2019-06-10T13:12:29.056Z,7.03
2019-06-10T13:15:03.352Z,6.17
2019-06-10T13:17:33.313Z,6.60
2019-06-10T13:20:06.397Z,6.20
2019-06-10T13:22:38.143Z,6.12
2019-06-10T13:25:09.272Z,6.62
2019-06-10T13:27:42.695Z,6.25
2019-06-10T13:30:13.785Z,6.60
2019-06-10T13:32:44.650Z,6.17
2019-06-10T13:35:15.822Z,6.30
2019-06-10T13:37:46.986Z,6.35
2019-06-10T13:40:18.561Z,5.78
2019-06-10T13:42:49.732Z,6.17
2019-06-10T13:45:22.887Z,6.25
2019-06-10T13:47:53.988Z,6.37
2019-06-10T13:50:25.834Z,6.95
2019-06-10T13:52:56.914Z,6.78
2019-06-10T13:55:28.136Z,5.92
2019-06-10T13:57:59.528Z,5.70
2019-06-10T14:00:40.835Z,6.58
2019-06-10T14:03:08.752Z,7.40
2019-06-10T14:05:36.613Z,7.17
2019-06-10T14:08:09.428Z,7.00
2019-06-10T14:10:42.784Z,6.58
2019-06-10T14:13:15.500Z,6.42
2019-06-10T14:15:45.982Z,6.17
2019-06-10T14:18:16.995Z,5.72
2019-06-10T14:20:48.174Z,6.15
2019-06-10T14:23:19.218Z,6.20
2019-06-10T14:25:52.566Z,5.83
2019-06-10T14:28:38.685Z,6.65
2019-06-10T14:30:56.050Z,6.33
2019-06-10T14:33:26.989Z,7.05
2019-06-10T14:35:58.102Z,6.60
2019-06-10T14:38:29.288Z,6.28
2019-06-10T14:41:04.350Z,6.67
2019-06-10T14:43:34.501Z,7.25
2019-06-10T14:46:07.254Z,7.12
2019-06-10T14:48:38.627Z,7.33
2019-06-10T14:51:14.888Z,7.35
2019-06-10T14:53:43.482Z,6.83
2019-06-10T14:56:18.653Z,7.37
2019-06-10T14:58:47.388Z,7.35
2019-06-10T15:01:24.653Z,7.40
2019-06-10T15:03:52.287Z,8.38
2019-06-10T15:06:23.484Z,7.28
2019-06-10T15:08:54.952Z,7.92
2019-06-10T15:11:27.667Z,7.50
2019-06-10T15:13:58.539Z,7.53
2019-06-10T15:16:29.795Z,7.95
2019-06-10T15:19:11.797Z,7.50
2019-06-10T15:21:33.216Z,7.50
2019-06-10T15:24:04.205Z,7.47
2019-06-10T15:26:36.223Z,6.80
2019-06-10T15:29:07.240Z,7.08
2019-06-10T15:31:38.402Z,7.78
2019-06-10T15:34:10.536Z,7.33
2019-06-10T15:36:43.220Z,7.28
2019-06-10T15:39:16.743Z,7.22
2019-06-10T15:41:46.504Z,6.90
2019-06-10T15:44:28.437Z,7.10
2019-06-10T15:46:52.280Z,7.25
2019-06-10T15:49:25.976Z,7.12
2019-06-10T15:51:55.883Z,6.65
2019-06-10T15:54:26.680Z,6.72
2019-06-10T15:56:57.636Z,7.15
2019-06-10T15:59:28.357Z,6.60
2019-06-10T16:01:59.384Z,6.50
2019-06-10T16:04:30.824Z,6.78
2019-06-10T16:07:03.569Z,6.50
2019-06-10T16:09:34.331Z,7.03
2019-06-10T16:12:05.286Z,7.12
2019-06-10T16:14:36.848Z,6.72
2019-06-10T16:17:07.692Z,6.92
2019-06-10T16:19:38.229Z,6.95
2019-06-10T16:22:08.746Z,7.10
2019-06-10T16:24:39.377Z,7.35
2019-06-10T16:27:12.502Z,7.12
2019-06-10T16:29:42.501Z,6.90
2019-06-10T16:32:14.564Z,7.33
2019-06-10T16:34:45.230Z,6.97
2019-06-10T16:37:16.997Z,7.33
2019-06-10T16:39:47.568Z,7.20
2019-06-10T16:42:24.555Z,7.03
2019-06-10T16:44:53.796Z,7.20
2019-06-10T16:47:27.109Z,7.17
2019-06-10T16:49:57.515Z,7.10
2019-06-10T16:52:34.064Z,6.92
2019-06-10T16:55:03.647Z,7.90
2019-06-10T16:57:34.485Z,7.33
2019-06-10T17:00:11.215Z,7.40
2019-06-10T17:02:38.973Z,7.45
2019-06-10T17:05:10.222Z,8.13
2019-06-10T17:07:43.386Z,7.58
2019-06-10T17:10:13.800Z,8.18
2019-06-10T17:12:46.311Z,9.33
2019-06-10T17:15:17.076Z,8.10
2019-06-10T17:17:47.556Z,7.50
2019-06-10T17:20:18.565Z,8.63
2019-06-10T17:22:49.300Z,7.47
2019-06-10T17:25:21.584Z,8.20
2019-06-10T17:27:52.749Z,7.62
2019-06-10T17:30:25.170Z,8.00
2019-06-10T17:32:55.763Z,7.62
2019-06-10T17:35:26.309Z,7.22
2019-06-10T17:37:56.928Z,7.85
2019-06-10T17:40:28.023Z,7.17
2019-06-10T17:43:02.264Z,7.60
2019-06-10T17:45:32.440Z,8.40
2019-06-10T17:48:03.522Z,7.55
2019-06-10T17:50:34.452Z,7.58
2019-06-10T17:53:05.231Z,7.70
2019-06-10T17:55:37.427Z,7.47
2019-06-10T17:58:08.191Z,7.62
2019-06-10T18:00:38.957Z,7.08
2019-06-10T18:03:09.457Z,7.95
2019-06-10T18:05:42.392Z,8.08
2019-06-10T18:08:13.069Z,8.13
2019-06-10T18:10:44.123Z,7.75
2019-06-10T18:13:16.828Z,7.53
2019-06-10T18:15:47.010Z,8.43
2019-06-10T18:18:17.503Z,7.95
2019-06-10T18:20:48.368Z,8.50
2019-06-10T18:23:19.209Z,8.75
2019-06-10T18:25:49.764Z,8.85
2019-06-10T18:28:22.353Z,9.03
2019-06-10T18:30:53.416Z,9.30
2019-06-10T18:33:25.508Z,9.33
2019-06-10T18:35:56.243Z,9.35
2019-06-10T18:38:27.341Z,9.75
2019-06-10T18:40:58.311Z,10.63
2019-06-10T18:43:29.564Z,9.58
2019-06-10T18:46:00.333Z,10.80
2019-06-10T18:48:35.489Z,10.55
2019-06-10T18:51:03.813Z,10.13
2019-06-10T18:53:36.097Z,10.45
2019-06-10T18:56:06.804Z,11.28
2019-06-10T18:58:38.920Z,11.38
2019-06-10T19:01:12.212Z,11.18
2019-06-10T19:03:42.921Z,11.30
2019-06-10T19:06:14.597Z,11.78
2019-06-10T19:08:47.075Z,11.70
2019-06-10T19:11:18.018Z,11.25
2019-06-10T19:13:48.603Z,11.75
2019-06-10T19:16:19.397Z,11.85
2019-06-10T19:18:50.096Z,11.88
2019-06-10T19:21:20.814Z,12.88
2019-06-10T19:23:53.156Z,11.40
2019-06-10T19:26:24.091Z,12.23
2019-06-10T19:28:57.358Z,12.65
2019-06-10T19:31:27.338Z,12.50
2019-06-10T19:33:58.200Z,12.70
2019-06-10T19:36:31.789Z,13.30
2019-06-10T19:39:02.501Z,12.40
2019-06-10T19:41:37.777Z,12.60
2019-06-10T19:44:07.405Z,12.88
2019-06-10T19:46:39.654Z,12.78
2019-06-10T19:49:13.132Z,13.88
2019-06-10T19:51:46.246Z,13.35
2019-06-10T19:54:16.120Z,14.50
2019-06-10T19:56:46.799Z,12.88
2019-06-10T19:59:17.493Z,12.88
2019-06-10T20:01:49.001Z,13.22
2019-06-10T20:04:19.774Z,13.55
2019-06-10T20:06:51.584Z,14.20
2019-06-10T20:09:24.864Z,14.60
2019-06-10T20:11:56.690Z,13.65
2019-06-10T20:14:27.219Z,13.93
2019-06-10T20:16:59.057Z,13.58
2019-06-10T20:19:32.624Z,14.38
2019-06-10T20:22:04.581Z,14.13
2019-06-10T20:24:36.551Z,14.10
2019-06-10T20:27:07.314Z,13.68
2019-06-10T20:29:38.181Z,15.10
2019-06-10T20:32:09.120Z,15.03
2019-06-10T20:34:41.344Z,15.03
2019-06-10T20:37:13.211Z,15.13
2019-06-10T20:39:45.972Z,14.30
2019-06-10T20:42:16.525Z,15.15
2019-06-10T20:44:47.869Z,15.05
2019-06-10T20:47:19.599Z,15.28
2019-06-10T20:49:53.609Z,14.55
2019-06-10T20:52:22.950Z,15.38
2019-06-10T20:54:53.600Z,14.95
2019-06-10T20:57:25.771Z,15.38
2019-06-10T21:00:01.287Z,15.32
2019-06-10T21:02:34.690Z,15.78
2019-06-10T21:05:22.421Z,14.98
2019-06-10T21:07:58.713Z,15.15
2019-06-10T21:10:35.251Z,15.63
2019-06-10T21:13:08.900Z,16.20
2019-06-10T21:15:43.008Z,15.98
2019-06-10T21:18:13.171Z,15.70
2019-06-10T21:20:56.148Z,15.78
2019-06-10T21:23:26.841Z,16.27
2019-06-10T21:26:06.702Z,16.35
2019-06-10T21:28:43.698Z,15.90
2019-06-10T21:31:17.562Z,16.45
2019-06-10T21:33:55.817Z,16.35
2019-06-10T21:36:24.992Z,16.30
2019-06-10T21:38:58.482Z,17.82
2019-06-10T21:41:32.028Z,17.65
2019-06-10T21:44:03.380Z,17.77
2019-06-10T21:46:34.148Z,17.62
2019-06-10T21:49:04.909Z,17.45
2019-06-10T21:51:35.586Z,17.32
2019-06-10T21:54:06.206Z,17.75
2019-06-10T21:56:36.670Z,18.15
2019-06-10T21:59:07.220Z,18.75
2019-06-10T22:01:37.926Z,18.62
2019-06-10T22:04:08.605Z,18.00
2019-06-10T22:06:39.530Z,18.55
2019-06-10T22:09:12.488Z,18.57
2019-06-10T22:11:43.814Z,19.17
2019-06-10T22:14:14.311Z,18.87
2019-06-10T22:16:46.193Z,18.98
2019-06-10T22:19:17.006Z,19.40
2019-06-10T22:21:48.564Z,18.27
2019-06-10T22:24:19.089Z,18.92
2019-06-10T22:26:51.019Z,18.85
2019-06-10T22:29:23.129Z,19.35
2019-06-10T22:31:55.297Z,19.70
2019-06-10T22:34:26.042Z,19.85
2019-06-10T22:36:57.632Z,19.42
2019-06-10T22:39:28.535Z,19.80
2019-06-10T22:41:59.698Z,20.57
2019-06-10T22:44:32.964Z,21.07
2019-06-10T22:47:02.998Z,20.82
2019-06-10T22:49:33.547Z,20.55
2019-06-10T22:52:04.004Z,21.23
2019-06-10T22:54:34.555Z,20.12
2019-06-10T22:57:05.257Z,20.88
2019-06-10T22:59:35.808Z,21.57
2019-06-10T23:02:06.474Z,20.62
2019-06-10T23:04:36.971Z,21.57
2019-06-10T23:07:13.075Z,20.48
2019-06-10T23:09:42.886Z,20.68
2019-06-10T23:12:13.672Z,20.02
2019-06-10T23:14:44.229Z,21.30
2019-06-10T23:17:14.737Z,20.12
2019-06-10T23:19:45.220Z,20.88
2019-06-10T23:22:15.743Z,21.33
2019-06-10T23:24:46.303Z,21.52
2019-06-10T23:27:18.140Z,21.73
2019-06-10T23:29:49.807Z,21.82
2019-06-10T23:32:22.198Z,21.33
2019-06-10T23:34:54.774Z,21.27
2019-06-10T23:37:25.420Z,22.30
2019-06-10T23:39:56.844Z,22.77
2019-06-10T23:42:27.510Z,23.85
2019-06-10T23:44:59.147Z,23.60
2019-06-10T23:47:29.862Z,23.65
2019-06-10T23:50:03.726Z,23.33
2019-06-10T23:52:33.077Z,22.65
2019-06-10T23:55:04.628Z,23.27
2019-06-10T23:57:38.481Z,22.70
